createdAt,value
2022-09-03T00:03:18.746Z,53.55
2022-09-03T00:06:48.885Z,52.96
2022-09-03T00:09:51.238Z,53.71
2022-09-03T00:12:48.404Z,53.69
2022-09-03T00:15:45.807Z,53.68
2022-09-03T00:18:46.644Z,54.29
2022-09-03T00:21:57.560Z,53.53
2022-09-03T00:24:54.403Z,53.40
2022-09-03T00:27:55.205Z,54.05
2022-09-03T00:31:15.105Z,54.50
2022-09-03T00:34:12.472Z,53.91
2022-09-03T00:37:14.502Z,53.84
2022-09-03T00:40:57.597Z,54.44
2022-09-03T00:44:01.277Z,54.65
2022-09-03T00:47:09.920Z,55.09
2022-09-03T00:50:25.477Z,54.87
2022-09-03T00:53:54.935Z,55.13
2022-09-03T00:56:59.470Z,54.77
2022-09-03T01:00:00.299Z,55.40
2022-09-03T01:03:12.556Z,55.77
2022-09-03T01:06:39.962Z,55.31
2022-09-03T01:10:02.402Z,55.56
2022-09-03T01:13:03.367Z,55.84
2022-09-03T01:16:20.588Z,56.11
2022-09-03T01:19:44.163Z,56.89
2022-09-03T01:23:12.204Z,55.92
2022-09-03T01:26:32.215Z,56.02
2022-09-03T01:29:39.644Z,56.30
2022-09-03T01:32:58.897Z,56.22
2022-09-03T01:36:04.380Z,56.47
2022-09-03T01:39:03.910Z,56.29
2022-09-03T01:42:20.479Z,56.58
2022-09-03T01:45:51.191Z,57.10
2022-09-03T01:48:54.506Z,57.21
2022-09-03T01:52:03.965Z,57.79
2022-09-03T01:55:21.473Z,58.38
2022-09-03T01:58:31.595Z,58.29
2022-09-03T02:01:32.154Z,58.39
2022-09-03T02:04:29.919Z,58.06
2022-09-03T02:07:38.954Z,59.15
2022-09-03T02:10:41.941Z,58.57
2022-09-03T02:13:43.901Z,57.85
2022-09-03T02:16:40.503Z,58.72
2022-09-03T02:19:37.795Z,58.71
2022-09-03T02:22:34.767Z,59.01
2022-09-03T02:25:41.114Z,58.34
2022-09-03T02:28:38.419Z,58.34
2022-09-03T02:31:35.912Z,59.64
2022-09-03T02:34:32.928Z,59.37
2022-09-03T02:37:29.633Z,58.56
2022-09-03T02:40:26.994Z,58.66
2022-09-03T02:43:32.901Z,58.62
2022-09-03T02:46:49.923Z,59.21
2022-09-03T02:49:48.745Z,59.84
2022-09-03T02:52:46.940Z,59.91
2022-09-03T02:55:43.940Z,59.95
2022-09-03T02:58:41.527Z,61.35
2022-09-03T03:01:39.122Z,61.04
2022-09-03T03:04:39.506Z,60.14
2022-09-03T03:07:38.054Z,61.54
2022-09-03T03:10:36.307Z,61.70
2022-09-03T03:13:34.282Z,60.73
2022-09-03T03:16:31.687Z,61.48
2022-09-03T03:19:29.012Z,60.67
2022-09-03T03:22:27.980Z,60.70
2022-09-03T03:25:26.012Z,61.06
2022-09-03T03:28:23.177Z,60.69
2022-09-03T03:31:22.269Z,62.05
2022-09-03T03:34:19.696Z,61.92
2022-09-03T03:37:16.669Z,61.19
2022-09-03T03:40:13.576Z,60.55
2022-09-03T03:43:10.881Z,61.94
2022-09-03T03:46:08.038Z,61.03
2022-09-03T03:49:06.720Z,61.81
2022-09-03T03:52:04.521Z,61.93
2022-09-03T03:55:01.628Z,60.98
2022-09-03T03:57:58.981Z,61.77
2022-09-03T04:00:55.778Z,61.83
2022-09-03T04:03:55.168Z,62.22
2022-09-03T04:06:53.975Z,62.62
2022-09-03T04:09:52.109Z,62.30
2022-09-03T04:12:49.045Z,62.13
2022-09-03T04:15:46.116Z,62.16
2022-09-03T04:18:42.456Z,62.45
2022-09-03T04:21:40.108Z,61.86
2022-09-03T04:24:36.811Z,61.86
2022-09-03T04:27:33.951Z,62.76
2022-09-03T04:30:30.720Z,62.29
2022-09-03T04:33:27.832Z,62.73
2022-09-03T04:36:26.260Z,62.06
2022-09-03T04:39:23.880Z,61.78
2022-09-03T04:42:20.847Z,61.26
2022-09-03T04:45:18.965Z,62.22
2022-09-03T04:48:16.172Z,63.36
2022-09-03T04:51:14.957Z,63.10
2022-09-03T04:54:12.199Z,63.39
2022-09-03T04:57:10.506Z,63.11
2022-09-03T05:00:10.728Z,63.16
2022-09-03T05:03:08.085Z,62.91
2022-09-03T05:06:06.417Z,62.25
2022-09-03T05:09:05.298Z,62.80
2022-09-03T05:12:02.995Z,62.78
2022-09-03T05:15:04.217Z,62.44
2022-09-03T05:18:02.544Z,62.24
2022-09-03T05:21:03.128Z,61.70
2022-09-03T05:24:00.166Z,63.15
2022-09-03T05:26:56.798Z,63.19
2022-09-03T05:29:53.741Z,63.59
2022-09-03T05:32:51.393Z,63.81
2022-09-03T05:35:48.832Z,63.66
2022-09-03T05:38:46.040Z,63.52
2022-09-03T05:41:42.987Z,63.64
2022-09-03T05:44:39.863Z,64.70
2022-09-03T05:47:39.531Z,64.13
2022-09-03T05:50:37.192Z,64.62
2022-09-03T05:53:35.357Z,64.69
2022-09-03T05:56:33.584Z,64.75
2022-09-03T05:59:30.993Z,64.67
2022-09-03T06:02:28.073Z,64.77
2022-09-03T06:05:25.372Z,64.43
2022-09-03T06:08:22.764Z,64.17
2022-09-03T06:11:20.756Z,64.87
2022-09-03T06:14:18.103Z,64.53
2022-09-03T06:17:15.171Z,65.43
2022-09-03T06:20:11.969Z,63.98
2022-09-03T06:23:09.091Z,64.85
2022-09-03T06:26:07.039Z,65.43
2022-09-03T06:29:04.332Z,64.56
2022-09-03T06:32:04.694Z,63.05
2022-09-03T06:35:02.134Z,66.03
2022-09-03T06:38:00.498Z,65.85
2022-09-03T06:41:02.045Z,65.64
2022-09-03T06:44:03.421Z,64.52
2022-09-03T06:47:01.583Z,63.85
2022-09-03T06:50:00.221Z,64.74
2022-09-03T06:52:56.949Z,63.53
2022-09-03T06:55:55.317Z,63.88
2022-09-03T06:58:59.827Z,63.93
2022-09-03T07:01:58.657Z,62.73
2022-09-03T07:04:56.303Z,64.58
2022-09-03T07:07:52.793Z,63.99
2022-09-03T07:10:51.267Z,62.74
2022-09-03T07:13:49.120Z,63.71
2022-09-03T07:16:46.470Z,61.90
2022-09-03T07:19:43.995Z,61.73
2022-09-03T07:22:41.340Z,61.31
2022-09-03T07:25:39.094Z,61.16
2022-09-03T07:28:37.433Z,61.06
2022-09-03T07:31:37.478Z,61.28
2022-09-03T07:34:35.703Z,60.55
2022-09-03T07:37:35.508Z,60.56
2022-09-03T07:40:33.329Z,60.51
2022-09-03T07:43:32.088Z,60.04
2022-09-03T07:46:29.525Z,60.18
2022-09-03T07:49:27.032Z,60.08
2022-09-03T07:52:24.066Z,59.32
2022-09-03T07:55:20.986Z,59.34
2022-09-03T07:58:18.187Z,59.13
2022-09-03T08:01:18.067Z,58.65
2022-09-03T08:04:15.195Z,56.98
2022-09-03T08:07:12.269Z,56.99
2022-09-03T08:10:09.537Z,57.53
2022-09-03T08:13:07.231Z,58.43
2022-09-03T08:16:05.480Z,57.74
2022-09-03T08:19:03.808Z,56.99
2022-09-03T08:22:00.938Z,56.76
2022-09-03T08:24:58.249Z,56.45
2022-09-03T08:27:57.800Z,56.18
2022-09-03T08:30:55.529Z,55.31
2022-09-03T08:33:54.103Z,53.71
2022-09-03T08:36:53.332Z,53.60
2022-09-03T08:39:51.146Z,54.02
2022-09-03T08:43:09.718Z,51.90
2022-09-03T08:46:07.069Z,52.15
2022-09-03T08:49:04.390Z,51.77
2022-09-03T08:52:05.872Z,52.84
2022-09-03T08:55:07.571Z,52.69
2022-09-03T08:58:18.755Z,51.98
2022-09-03T09:01:59.227Z,51.36
2022-09-03T09:05:19.503Z,50.91
2022-09-03T09:08:27.093Z,51.56
2022-09-03T09:11:33.718Z,51.52
2022-09-03T09:14:56.277Z,51.09
2022-09-03T09:18:03.099Z,50.30
2022-09-03T09:21:07.892Z,48.90
2022-09-03T09:24:08.784Z,50.64
2022-09-03T09:27:06.106Z,49.21
2022-09-03T09:30:04.862Z,49.36
2022-09-03T09:33:03.152Z,49.72
2022-09-03T09:36:02.959Z,48.27
2022-09-03T09:39:09.697Z,48.28
2022-09-03T09:42:11.370Z,47.85
2022-09-03T09:45:11.559Z,48.84
2022-09-03T09:48:17.713Z,47.99
2022-09-03T09:51:31.137Z,47.24
2022-09-03T09:54:27.920Z,46.66
2022-09-03T09:57:25.383Z,46.87
2022-09-03T10:00:21.944Z,46.32
2022-09-03T10:03:21.287Z,45.47
2022-09-03T10:06:36.854Z,46.54
2022-09-03T10:09:34.352Z,47.10
2022-09-03T10:12:42.193Z,46.19
2022-09-03T10:15:48.200Z,46.40
2022-09-03T10:18:51.478Z,45.34
2022-09-03T10:22:06.147Z,46.05
2022-09-03T10:25:03.647Z,45.07
2022-09-03T10:28:02.138Z,44.83
2022-09-03T10:31:37.126Z,44.90
2022-09-03T10:35:04.136Z,44.83
2022-09-03T10:38:36.652Z,45.72
2022-09-03T10:42:02.660Z,45.36
2022-09-03T10:45:09.719Z,45.41
2022-09-03T10:48:29.058Z,45.98
2022-09-03T10:51:41.040Z,45.41
2022-09-03T10:54:57.292Z,43.55
2022-09-03T10:58:03.311Z,45.59
2022-09-03T11:01:07.212Z,44.02
2022-09-03T11:04:20.045Z,44.69
2022-09-03T11:07:20.779Z,43.71
2022-09-03T11:10:41.091Z,43.13
2022-09-03T11:13:45.098Z,44.19
2022-09-03T11:17:15.791Z,43.41
2022-09-03T11:20:23.820Z,43.78
2022-09-03T11:23:21.870Z,43.00
2022-09-03T11:26:19.890Z,44.45
2022-09-03T11:29:30.456Z,44.10
2022-09-03T11:32:39.922Z,42.83
2022-09-03T11:35:36.914Z,43.66
2022-09-03T11:38:34.550Z,43.88
2022-09-03T11:41:35.845Z,43.51
2022-09-03T11:44:45.900Z,42.39
2022-09-03T11:47:48.742Z,42.29
2022-09-03T11:50:54.405Z,43.08
2022-09-03T11:54:15.727Z,44.34
2022-09-03T11:57:25.098Z,44.05
2022-09-03T12:00:25.017Z,42.53
2022-09-03T12:03:31.217Z,42.35
2022-09-03T12:06:59.736Z,42.77
2022-09-03T12:10:21.717Z,43.08
2022-09-03T12:13:41.921Z,42.68
2022-09-03T12:17:04.175Z,43.23
2022-09-03T12:20:01.702Z,42.22
2022-09-03T12:22:59.393Z,44.60
2022-09-03T12:26:05.323Z,42.13
2022-09-03T12:29:02.724Z,43.20
2022-09-03T12:32:11.730Z,44.38
2022-09-03T12:39:01.033Z,43.54
2022-09-03T12:42:07.753Z,43.53
2022-09-03T12:45:07.146Z,43.72
2022-09-03T12:48:05.411Z,43.70
2022-09-03T12:51:47.827Z,42.23
2022-09-03T12:54:20.463Z,44.16
2022-09-03T12:57:19.887Z,42.44
2022-09-03T13:00:18.825Z,43.28
2022-09-03T13:03:24.707Z,42.32
2022-09-03T13:06:26.559Z,41.55
2022-09-03T13:09:24.519Z,42.87
2022-09-03T13:12:33.532Z,41.38
2022-09-03T13:15:31.594Z,43.41
2022-09-03T13:18:57.029Z,41.43
2022-09-03T13:22:15.760Z,41.70
2022-09-03T13:25:21.245Z,42.93
2022-09-03T13:28:54.691Z,42.47
2022-09-03T13:31:55.670Z,42.77
2022-09-03T13:34:55.860Z,40.63
2022-09-03T13:37:58.198Z,42.74
2022-09-03T13:41:21.137Z,42.52
2022-09-03T13:44:20.121Z,42.60
2022-09-03T13:47:29.869Z,41.97
2022-09-03T13:50:28.472Z,43.08
2022-09-03T13:53:51.865Z,43.52
2022-09-03T13:57:08.032Z,43.96
2022-09-03T14:00:09.006Z,42.62
2022-09-03T14:03:16.664Z,42.60
2022-09-03T14:06:32.382Z,42.13
2022-09-03T14:09:51.970Z,41.87
2022-09-03T14:13:12.059Z,41.15
2022-09-03T14:16:30.865Z,41.67
2022-09-03T14:19:49.093Z,42.40
2022-09-03T14:22:57.621Z,42.04
2022-09-03T14:25:58.025Z,41.41
2022-09-03T14:29:03.231Z,41.85
2022-09-03T14:32:29.440Z,41.86
2022-09-03T14:35:50.656Z,41.08
2022-09-03T14:39:18.233Z,41.05
2022-09-03T14:42:37.044Z,41.30
2022-09-03T14:45:55.825Z,40.02
2022-09-03T14:49:12.043Z,40.84
2022-09-03T14:52:31.524Z,40.39
2022-09-03T14:55:35.519Z,40.46
2022-09-03T14:58:35.329Z,40.31
2022-09-03T15:01:39.503Z,41.58
2022-09-03T15:05:02.570Z,41.15
2022-09-03T15:08:18.828Z,41.16
2022-09-03T15:11:22.820Z,40.23
2022-09-03T15:14:41.609Z,40.88
2022-09-03T15:18:07.653Z,41.06
2022-09-03T15:21:24.510Z,41.21
2022-09-03T15:24:27.636Z,40.87
2022-09-03T15:27:42.074Z,41.69
2022-09-03T15:30:45.194Z,41.20
2022-09-03T15:34:13.167Z,41.50
2022-09-03T15:37:57.827Z,40.98
2022-09-03T15:40:57.125Z,40.83
2022-09-03T15:43:58.952Z,41.44
2022-09-03T15:47:00.516Z,40.93
2022-09-03T15:50:10.415Z,41.80
2022-09-03T15:53:22.519Z,43.23
2022-09-03T15:56:39.880Z,42.30
2022-09-03T15:59:42.684Z,42.48
2022-09-03T16:03:20.416Z,41.84
2022-09-03T16:06:20.937Z,42.20
2022-09-03T16:09:27.894Z,41.63
2022-09-03T16:13:04.653Z,43.51
2022-09-03T16:16:05.996Z,41.99
2022-09-03T16:19:12.113Z,42.45
2022-09-03T16:22:42.442Z,42.50
2022-09-03T16:26:11.131Z,42.29
2022-09-03T16:29:15.781Z,42.86
2022-09-03T16:32:32.502Z,42.76
2022-09-03T16:35:33.050Z,42.71
2022-09-03T16:38:49.824Z,42.54
2022-09-03T16:41:53.116Z,42.22
2022-09-03T16:44:59.925Z,42.43
2022-09-03T16:48:12.215Z,42.44
2022-09-03T16:51:45.311Z,42.40
2022-09-03T16:55:08.626Z,43.13
2022-09-03T16:58:22.290Z,42.87
2022-09-03T17:01:39.713Z,42.79
2022-09-03T17:04:46.368Z,41.93
2022-09-03T17:08:16.377Z,43.14
2022-09-03T17:11:26.951Z,42.11
2022-09-03T17:14:27.636Z,42.01
2022-09-03T17:17:43.570Z,42.01
2022-09-03T17:21:28.886Z,43.31
2022-09-03T17:24:50.833Z,42.23
2022-09-03T17:27:52.090Z,43.14
2022-09-03T17:31:16.137Z,42.71
2022-09-03T17:34:29.660Z,42.62
2022-09-03T17:37:50.283Z,42.84
2022-09-03T17:41:04.146Z,43.14
2022-09-03T17:44:23.086Z,43.39
2022-09-03T17:47:57.267Z,43.28
2022-09-03T17:51:01.754Z,43.48
2022-09-03T17:54:09.314Z,42.81
2022-09-03T17:57:24.690Z,43.26
2022-09-03T18:00:45.904Z,42.91
2022-09-03T18:04:05.115Z,43.76
2022-09-03T18:07:10.725Z,43.28
2022-09-03T18:10:40.108Z,43.38
2022-09-03T18:13:46.176Z,43.38
2022-09-03T18:16:56.424Z,44.01
2022-09-03T18:20:25.444Z,43.79
2022-09-03T18:23:49.081Z,43.07
2022-09-03T18:27:08.051Z,44.48
2022-09-03T18:30:29.208Z,43.71
2022-09-03T18:33:44.990Z,43.90
2022-09-03T18:37:01.307Z,43.57
2022-09-03T18:40:17.131Z,43.66
2022-09-03T18:43:43.028Z,43.44
2022-09-03T18:50:56.737Z,43.99
2022-09-03T18:55:03.950Z,43.97
2022-09-03T18:58:37.929Z,44.46
2022-09-03T19:01:58.479Z,44.64
2022-09-03T19:05:42.640Z,44.19
2022-09-03T19:09:05.747Z,45.56
2022-09-03T19:12:42.834Z,44.86
2022-09-03T19:16:18.379Z,44.78
2022-09-03T19:19:46.486Z,44.48
2022-09-03T19:23:02.742Z,44.53
2022-09-03T19:26:26.950Z,44.35
2022-09-03T19:30:08.847Z,44.82
2022-09-03T19:33:42.903Z,45.32
2022-09-03T19:37:23.236Z,44.25
2022-09-03T19:41:03.888Z,44.63
2022-09-03T19:44:19.405Z,44.92
2022-09-03T19:47:59.545Z,45.20
2022-09-03T19:51:35.512Z,45.65
2022-09-03T19:54:51.485Z,44.62
2022-09-03T19:58:26.165Z,45.22
2022-09-03T20:01:55.291Z,45.70
2022-09-03T20:05:19.018Z,45.44
2022-09-03T20:08:35.319Z,46.57
2022-09-03T20:11:32.625Z,46.84
2022-09-03T20:14:29.853Z,46.54
2022-09-03T20:17:43.119Z,46.35
2022-09-03T20:21:21.349Z,46.82
2022-09-03T20:24:40.002Z,46.80
2022-09-03T20:27:48.813Z,47.21
2022-09-03T20:30:51.888Z,47.40
2022-09-03T20:34:06.856Z,47.17
2022-09-03T20:37:24.941Z,47.02
2022-09-03T20:40:54.613Z,47.30
2022-09-03T20:44:01.568Z,47.62
2022-09-03T20:47:26.650Z,48.24
2022-09-03T20:50:41.198Z,47.69
2022-09-03T20:54:03.688Z,48.00
2022-09-03T20:57:14.569Z,48.15
2022-09-03T21:00:14.146Z,47.69
2022-09-03T21:03:49.965Z,47.59
2022-09-03T21:06:58.755Z,47.85
2022-09-03T21:10:04.046Z,48.88
2022-09-03T21:13:16.488Z,49.00
2022-09-03T21:17:00.305Z,49.32
2022-09-03T21:20:08.304Z,47.89
2022-09-03T21:23:24.550Z,47.93
2022-09-03T21:26:29.871Z,47.35
2022-09-03T21:29:29.463Z,47.92
2022-09-03T21:32:54.244Z,49.08
2022-09-03T21:35:54.757Z,48.23
2022-09-03T21:39:06.244Z,48.30
2022-09-03T21:42:21.327Z,49.35
2022-09-03T21:45:37.004Z,49.13
2022-09-03T21:48:46.812Z,48.06
2022-09-03T21:51:58.753Z,48.99
2022-09-03T21:54:55.799Z,49.51
2022-09-03T21:58:16.894Z,49.12
2022-09-03T22:01:26.373Z,49.18
2022-09-03T22:04:28.141Z,49.72
2022-09-03T22:07:53.412Z,49.35
2022-09-03T22:10:54.051Z,49.44
2022-09-03T22:13:59.142Z,49.50
2022-09-03T22:17:16.825Z,49.84
2022-09-03T22:20:15.555Z,48.89
2022-09-03T22:23:15.636Z,49.29
2022-09-03T22:26:27.960Z,50.10
2022-09-03T22:29:49.218Z,50.29
2022-09-03T22:33:10.305Z,50.10
2022-09-03T22:36:28.548Z,50.54
2022-09-03T22:39:37.555Z,49.81
2022-09-03T22:42:56.689Z,49.46
2022-09-03T22:46:12.944Z,49.67
2022-09-03T22:49:11.232Z,50.64
2022-09-03T22:52:22.568Z,50.59
2022-09-03T22:55:23.172Z,50.59
2022-09-03T22:58:28.951Z,50.73
2022-09-03T23:01:31.491Z,50.65
2022-09-03T23:04:42.340Z,50.76
2022-09-03T23:07:46.282Z,51.29
2022-09-03T23:11:10.382Z,51.56
2022-09-03T23:14:09.758Z,51.85
2022-09-03T23:17:10.140Z,51.76
2022-09-03T23:23:13.347Z,53.00
2022-09-03T23:26:42.907Z,52.84
2022-09-03T23:29:42.863Z,52.90
2022-09-03T23:32:39.849Z,53.12
2022-09-03T23:35:56.636Z,53.09
2022-09-03T23:39:18.472Z,53.11
2022-09-03T23:42:43.053Z,53.04
2022-09-03T23:45:49.383Z,53.10
2022-09-03T23:48:46.676Z,53.03
2022-09-03T23:52:00.664Z,53.25
2022-09-03T23:55:19.505Z,53.40
2022-09-03T23:58:20.607Z,53.50
